sensor_id;sensor_type;location;lat;lon;timestamp;P1;durP1;ratioP1;P2;durP2;ratioP2
57335;SDS011;43171;50.994;18.204;2023-11-22T00:05:27;105.00;;;36.90;;
57335;SDS011;43171;50.994;18.204;2023-11-22T00:07:53;108.50;;;51.30;;
57335;SDS011;43171;50.994;18.204;2023-11-22T00:17:37;116.70;;;41.40;;
57335;SDS011;43171;50.994;18.204;2023-11-22T00:27:29;102.00;;;37.60;;
57335;SDS011;43171;50.994;18.204;2023-11-22T00:37:15;98.60;;;40.70;;
57335;SDS011;43171;50.994;18.204;2023-11-22T00:46:58;99.60;;;32.50;;
57335;SDS011;43171;50.994;18.204;2023-11-22T00:49:23;115.70;;;55.70;;
57335;SDS011;43171;50.994;18.204;2023-11-22T00:59:11;92.60;;;33.20;;
57335;SDS011;43171;50.994;18.204;2023-11-22T01:08:54;99.30;;;35.40;;
57335;SDS011;43171;50.994;18.204;2023-11-22T01:18:38;110.60;;;38.40;;
57335;SDS011;43171;50.994;18.204;2023-11-22T01:28:21;96.70;;;33.10;;
57335;SDS011;43171;50.994;18.204;2023-11-22T01:38:06;111.90;;;37.80;;
57335;SDS011;43171;50.994;18.204;2023-11-22T01:47:48;117.30;;;44.10;;
57335;SDS011;43171;50.994;18.204;2023-11-22T01:57:32;140.20;;;44.30;;
57335;SDS011;43171;50.994;18.204;2023-11-22T02:07:27;150.00;;;50.00;;
57335;SDS011;43171;50.994;18.204;2023-11-22T02:17:10;118.80;;;42.50;;
57335;SDS011;43171;50.994;18.204;2023-11-22T02:26:53;153.60;;;50.30;;
57335;SDS011;43171;50.994;18.204;2023-11-22T02:36:36;122.30;;;45.70;;
57335;SDS011;43171;50.994;18.204;2023-11-22T02:46:20;132.10;;;45.50;;
57335;SDS011;43171;50.994;18.204;2023-11-22T02:56:07;98.00;;;37.10;;
57335;SDS011;43171;50.994;18.204;2023-11-22T03:03:23;98.70;;;49.40;;
57335;SDS011;43171;50.994;18.204;2023-11-22T03:13:07;117.10;;;48.00;;
57335;SDS011;43171;50.994;18.204;2023-11-22T03:22:52;107.20;;;40.70;;
57335;SDS011;43171;50.994;18.204;2023-11-22T03:32:39;101.90;;;39.40;;
57335;SDS011;43171;50.994;18.204;2023-11-22T03:42:23;88.20;;;35.50;;
57335;SDS011;43171;50.994;18.204;2023-11-22T03:44:49;69.70;;;40.50;;
57335;SDS011;43171;50.994;18.204;2023-11-22T03:54:33;56.30;;;27.20;;
57335;SDS011;43171;50.994;18.204;2023-11-22T04:04:16;51.10;;;27.30;;
57335;SDS011;43171;50.994;18.204;2023-11-22T04:11:33;67.80;;;38.50;;
57335;SDS011;43171;50.994;18.204;2023-11-22T04:21:16;66.20;;;25.70;;
57335;SDS011;43171;50.994;18.204;2023-11-22T04:30:59;42.40;;;27.80;;
57335;SDS011;43171;50.994;18.204;2023-11-22T04:40:44;67.80;;;28.90;;
57335;SDS011;43171;50.994;18.204;2023-11-22T04:50:27;88.90;;;33.60;;
57335;SDS011;43171;50.994;18.204;2023-11-22T05:00:13;68.00;;;31.70;;
57335;SDS011;43171;50.994;18.204;2023-11-22T05:09:56;70.10;;;30.40;;
57335;SDS011;43171;50.994;18.204;2023-11-22T05:19:39;70.30;;;31.90;;
57335;SDS011;43171;50.994;18.204;2023-11-22T05:29:21;68.80;;;30.50;;
57335;SDS011;43171;50.994;18.204;2023-11-22T05:39:04;62.40;;;32.00;;
57335;SDS011;43171;50.994;18.204;2023-11-22T05:48:50;51.60;;;25.90;;
57335;SDS011;43171;50.994;18.204;2023-11-22T05:58:34;59.40;;;23.10;;
57335;SDS011;43171;50.994;18.204;2023-11-22T06:08:22;54.90;;;26.80;;
57335;SDS011;43171;50.994;18.204;2023-11-22T06:18:05;37.60;;;20.90;;
57335;SDS011;43171;50.994;18.204;2023-11-22T06:27:47;52.10;;;24.80;;
57335;SDS011;43171;50.994;18.204;2023-11-22T06:37:34;51.20;;;21.20;;
57335;SDS011;43171;50.994;18.204;2023-11-22T06:47:18;45.40;;;21.80;;
57335;SDS011;43171;50.994;18.204;2023-11-22T06:57:03;40.30;;;18.70;;
57335;SDS011;43171;50.994;18.204;2023-11-22T07:06:49;35.90;;;18.10;;
57335;SDS011;43171;50.994;18.204;2023-11-22T07:16:34;39.30;;;19.10;;
57335;SDS011;43171;50.994;18.204;2023-11-22T07:26:20;42.20;;;21.40;;
57335;SDS011;43171;50.994;18.204;2023-11-22T07:28:46;37.70;;;24.10;;
57335;SDS011;43171;50.994;18.204;2023-11-22T07:38:30;41.30;;;19.40;;
57335;SDS011;43171;50.994;18.204;2023-11-22T07:48:16;39.30;;;21.50;;
57335;SDS011;43171;50.994;18.204;2023-11-22T07:58:02;28.40;;;14.50;;
57335;SDS011;43171;50.994;18.204;2023-11-22T08:07:53;38.20;;;21.20;;
57335;SDS011;43171;50.994;18.204;2023-11-22T08:17:41;31.10;;;18.90;;
57335;SDS011;43171;50.994;18.204;2023-11-22T08:27:30;51.00;;;24.00;;
57335;SDS011;43171;50.994;18.204;2023-11-22T08:32:21;179.80;;;86.30;;
57335;SDS011;43171;50.994;18.204;2023-11-22T08:42:08;38.30;;;17.10;;
57335;SDS011;43171;50.994;18.204;2023-11-22T08:51:55;34.40;;;16.40;;
57335;SDS011;43171;50.994;18.204;2023-11-22T09:01:38;36.10;;;16.70;;
57335;SDS011;43171;50.994;18.204;2023-11-22T09:11:21;29.80;;;15.20;;
57335;SDS011;43171;50.994;18.204;2023-11-22T09:21:08;29.80;;;16.50;;
57335;SDS011;43171;50.994;18.204;2023-11-22T09:30:53;24.50;;;12.70;;
57335;SDS011;43171;50.994;18.204;2023-11-22T09:40:46;58.00;;;22.80;;
57335;SDS011;43171;50.994;18.204;2023-11-22T10:00:58;29.60;;;12.60;;
57335;SDS011;43171;50.994;18.204;2023-11-22T10:10:49;36.60;;;15.10;;
57335;SDS011;43171;50.994;18.204;2023-11-22T10:20:40;24.50;;;11.20;;
57335;SDS011;43171;50.994;18.204;2023-11-22T10:30:27;15.50;;;8.20;;
57335;SDS011;43171;50.994;18.204;2023-11-22T10:40:14;16.30;;;11.30;;
57335;SDS011;43171;50.994;18.204;2023-11-22T10:50:04;20.50;;;10.80;;
57335;SDS011;43171;50.994;18.204;2023-11-22T10:59:55;11.70;;;7.70;;
57335;SDS011;43171;50.994;18.204;2023-11-22T11:09:44;11.60;;;8.60;;
57335;SDS011;43171;50.994;18.204;2023-11-22T11:19:29;19.50;;;7.90;;
57335;SDS011;43171;50.994;18.204;2023-11-22T11:29:29;13.70;;;7.90;;
57335;SDS011;43171;50.994;18.204;2023-11-22T11:39:12;12.20;;;6.90;;
57335;SDS011;43171;50.994;18.204;2023-11-22T11:49:00;10.80;;;6.80;;
57335;SDS011;43171;50.994;18.204;2023-11-22T11:58:45;10.20;;;7.00;;
57335;SDS011;43171;50.994;18.204;2023-11-22T12:08:32;18.50;;;9.80;;
57335;SDS011;43171;50.994;18.204;2023-11-22T12:18:19;36.30;;;16.90;;
57335;SDS011;43171;50.994;18.204;2023-11-22T12:28:16;5.20;;;3.00;;
57335;SDS011;43171;50.994;18.204;2023-11-22T12:38:02;8.70;;;5.30;;
57335;SDS011;43171;50.994;18.204;2023-11-22T12:47:49;8.70;;;4.90;;
57335;SDS011;43171;50.994;18.204;2023-11-22T12:58:08;11.80;;;6.80;;
57335;SDS011;43171;50.994;18.204;2023-11-22T13:07:52;12.00;;;6.80;;
57335;SDS011;43171;50.994;18.204;2023-11-22T13:17:37;13.00;;;6.70;;
57335;SDS011;43171;50.994;18.204;2023-11-22T13:27:24;8.60;;;5.20;;
57335;SDS011;43171;50.994;18.204;2023-11-22T13:37:09;16.90;;;14.00;;
57335;SDS011;43171;50.994;18.204;2023-11-22T13:46:52;11.80;;;8.00;;
57335;SDS011;43171;50.994;18.204;2023-11-22T13:56:37;10.90;;;8.40;;
57335;SDS011;43171;50.994;18.204;2023-11-22T14:06:23;13.90;;;9.60;;
57335;SDS011;43171;50.994;18.204;2023-11-22T14:16:05;9.90;;;7.30;;
57335;SDS011;43171;50.994;18.204;2023-11-22T14:25:50;15.60;;;8.40;;
57335;SDS011;43171;50.994;18.204;2023-11-22T14:35:35;18.90;;;11.40;;
57335;SDS011;43171;50.994;18.204;2023-11-22T14:45:22;14.50;;;8.80;;
57335;SDS011;43171;50.994;18.204;2023-11-22T14:55:09;18.30;;;10.90;;
57335;SDS011;43171;50.994;18.204;2023-11-22T15:04:56;27.80;;;16.80;;
57335;SDS011;43171;50.994;18.204;2023-11-22T15:14:39;154.70;;;63.50;;
57335;SDS011;43171;50.994;18.204;2023-11-22T15:24:24;96.10;;;38.20;;
57335;SDS011;43171;50.994;18.204;2023-11-22T15:34:13;37.60;;;21.10;;
57335;SDS011;43171;50.994;18.204;2023-11-22T15:51:16;48.50;;;24.10;;
57335;SDS011;43171;50.994;18.204;2023-11-22T16:01:12;44.50;;;22.00;;
57335;SDS011;43171;50.994;18.204;2023-11-22T16:10:56;87.70;;;39.40;;
57335;SDS011;43171;50.994;18.204;2023-11-22T16:20:39;83.50;;;41.10;;
57335;SDS011;43171;50.994;18.204;2023-11-22T16:30:22;71.50;;;39.30;;
57335;SDS011;43171;50.994;18.204;2023-11-22T16:40:06;99.00;;;47.10;;
57335;SDS011;43171;50.994;18.204;2023-11-22T16:49:50;67.40;;;34.70;;
57335;SDS011;43171;50.994;18.204;2023-11-22T16:59:38;60.80;;;34.60;;
57335;SDS011;43171;50.994;18.204;2023-11-22T17:09:33;76.50;;;41.00;;
57335;SDS011;43171;50.994;18.204;2023-11-22T17:19:16;69.10;;;31.60;;
57335;SDS011;43171;50.994;18.204;2023-11-22T17:28:59;95.70;;;43.50;;
57335;SDS011;43171;50.994;18.204;2023-11-22T17:38:42;54.50;;;31.20;;
57335;SDS011;43171;50.994;18.204;2023-11-22T17:48:25;126.30;;;68.10;;
57335;SDS011;43171;50.994;18.204;2023-11-22T17:58:08;98.90;;;63.90;;
57335;SDS011;43171;50.994;18.204;2023-11-22T18:07:52;59.40;;;35.30;;
57335;SDS011;43171;50.994;18.204;2023-11-22T18:17:40;161.50;;;80.00;;
57335;SDS011;43171;50.994;18.204;2023-11-22T18:27:32;125.20;;;63.20;;
57335;SDS011;43171;50.994;18.204;2023-11-22T18:37:17;159.60;;;73.00;;
57335;SDS011;43171;50.994;18.204;2023-11-22T18:47:13;278.40;;;135.30;;
57335;SDS011;43171;50.994;18.204;2023-11-22T18:56:56;124.70;;;70.90;;
57335;SDS011;43171;50.994;18.204;2023-11-22T19:06:43;125.00;;;70.20;;
57335;SDS011;43171;50.994;18.204;2023-11-22T19:16:28;138.40;;;68.90;;
57335;SDS011;43171;50.994;18.204;2023-11-22T19:26:11;103.60;;;43.40;;
57335;SDS011;43171;50.994;18.204;2023-11-22T19:28:36;79.60;;;47.80;;
57335;SDS011;43171;50.994;18.204;2023-11-22T19:38:19;61.00;;;34.40;;
57335;SDS011;43171;50.994;18.204;2023-11-22T19:48:06;54.00;;;28.40;;
57335;SDS011;43171;50.994;18.204;2023-11-22T19:57:49;16.40;;;10.60;;
57335;SDS011;43171;50.994;18.204;2023-11-22T20:07:35;29.80;;;19.30;;
57335;SDS011;43171;50.994;18.204;2023-11-22T20:17:20;27.00;;;16.40;;
57335;SDS011;43171;50.994;18.204;2023-11-22T20:27:05;29.00;;;16.40;;
57335;SDS011;43171;50.994;18.204;2023-11-22T20:36:48;28.60;;;18.80;;
57335;SDS011;43171;50.994;18.204;2023-11-22T20:46:38;35.70;;;17.80;;
57335;SDS011;43171;50.994;18.204;2023-11-22T20:56:22;22.00;;;14.20;;
57335;SDS011;43171;50.994;18.204;2023-11-22T20:58:47;30.30;;;21.80;;
57335;SDS011;43171;50.994;18.204;2023-11-22T21:08:29;19.90;;;15.30;;
57335;SDS011;43171;50.994;18.204;2023-11-22T21:18:12;23.20;;;16.40;;
57335;SDS011;43171;50.994;18.204;2023-11-22T21:20:37;29.00;;;20.60;;
57335;SDS011;43171;50.994;18.204;2023-11-22T21:30:19;15.00;;;9.70;;
57335;SDS011;43171;50.994;18.204;2023-11-22T21:40:04;31.60;;;18.00;;
57335;SDS011;43171;50.994;18.204;2023-11-22T21:49:55;24.00;;;15.90;;
57335;SDS011;43171;50.994;18.204;2023-11-22T21:59:37;25.00;;;16.80;;
57335;SDS011;43171;50.994;18.204;2023-11-22T22:09:19;27.60;;;17.10;;
57335;SDS011;43171;50.994;18.204;2023-11-22T22:19:01;25.90;;;16.20;;
57335;SDS011;43171;50.994;18.204;2023-11-22T22:28:46;24.60;;;15.30;;
57335;SDS011;43171;50.994;18.204;2023-11-22T22:38:31;18.50;;;13.80;;
57335;SDS011;43171;50.994;18.204;2023-11-22T22:55:32;27.30;;;16.60;;
57335;SDS011;43171;50.994;18.204;2023-11-22T23:05:30;34.30;;;19.50;;
57335;SDS011;43171;50.994;18.204;2023-11-22T23:15:20;33.50;;;20.20;;
57335;SDS011;43171;50.994;18.204;2023-11-22T23:25:07;24.10;;;14.90;;
57335;SDS011;43171;50.994;18.204;2023-11-22T23:34:51;29.40;;;15.20;;
57335;SDS011;43171;50.994;18.204;2023-11-22T23:44:39;29.00;;;14.60;;
57335;SDS011;43171;50.994;18.204;2023-11-22T23:54:23;30.70;;;15.60;;
